createdAt,value
2019-06-10T00:00:16.428Z,19.3
2019-06-10T00:00:42.558Z,19.2
2019-06-10T00:01:17.889Z,19.3
2019-06-10T00:01:53.849Z,19.3
2019-06-10T00:02:31.228Z,19.2
2019-06-10T00:03:07.406Z,19.3
2019-06-10T00:03:42.602Z,19.2
2019-06-10T00:04:17.856Z,19.3
2019-06-10T00:04:53.802Z,19.1
2019-06-10T00:05:42.091Z,19.2
2019-06-10T00:06:17.920Z,19.2
2019-06-10T00:06:53.865Z,19.2
2019-06-10T00:07:31.922Z,19.2
2019-06-10T00:08:07.305Z,19.2
2019-06-10T00:08:41.898Z,19.2
2019-06-10T00:09:17.854Z,19.2
2019-06-10T00:09:53.827Z,19.2
2019-06-10T00:10:42.717Z,19.2
2019-06-10T00:11:17.805Z,19.2
2019-06-10T00:11:53.886Z,19.1
2019-06-10T00:12:31.834Z,19.1
2019-06-10T00:13:08.607Z,19.2
2019-06-10T00:13:41.874Z,19.1
2019-06-10T00:14:17.924Z,19.1
2019-06-10T00:14:53.860Z,19.1
2019-06-10T00:15:31.729Z,19.1
2019-06-10T00:16:07.981Z,19.1
2019-06-10T00:17:08.163Z,19.1
2019-06-10T00:18:07.135Z,19.1
2019-06-10T00:18:53.845Z,19
2019-06-10T00:19:31.956Z,19.1
2019-06-10T00:20:08.347Z,19.2
2019-06-10T00:20:41.875Z,19.1
2019-06-10T00:21:17.911Z,19.1
2019-06-10T00:21:53.816Z,19
2019-06-10T00:22:31.875Z,19.1
2019-06-10T00:23:08.279Z,19.1
2019-06-10T00:23:41.836Z,19.1
2019-06-10T00:24:17.822Z,19.1
2019-06-10T00:24:53.788Z,19.1
2019-06-10T00:25:31.692Z,19.1
2019-06-10T00:26:09.239Z,19.2
2019-06-10T00:26:41.818Z,19.1
2019-06-10T00:27:17.772Z,19.2
2019-06-10T00:27:53.866Z,19.1
2019-06-10T00:28:31.476Z,19.1
2019-06-10T00:29:08.903Z,19.2
2019-06-10T00:29:41.959Z,19.2
2019-06-10T00:30:17.879Z,19.2
2019-06-10T00:30:53.841Z,19.1
2019-06-10T00:31:31.571Z,19
2019-06-10T00:32:10.329Z,19.1
2019-06-10T00:32:41.864Z,19.1
2019-06-10T00:33:17.843Z,19.1
2019-06-10T00:33:53.797Z,19.1
2019-06-10T00:34:34.897Z,19.2
2019-06-10T00:35:07.872Z,19.1
2019-06-10T00:35:41.917Z,19.1
2019-06-10T00:36:17.799Z,19.1
2019-06-10T00:36:53.894Z,19.2
2019-06-10T00:37:31.840Z,19.1
2019-06-10T00:38:08.980Z,19.2
2019-06-10T00:38:41.805Z,19.2
2019-06-10T00:39:17.882Z,19.3
2019-06-10T00:39:53.856Z,19.3
2019-06-10T00:40:42.280Z,19.2
2019-06-10T00:41:17.823Z,19.3
2019-06-10T00:41:53.836Z,19.3
2019-06-10T00:42:31.763Z,19.3
2019-06-10T00:43:09.167Z,19.4
2019-06-10T00:43:41.828Z,19.3
2019-06-10T00:44:17.792Z,19.4
2019-06-10T00:44:53.891Z,19.4
2019-06-10T00:45:31.810Z,19.3
2019-06-10T00:46:08.871Z,19.4
2019-06-10T00:46:41.785Z,19.5
2019-06-10T00:47:17.884Z,19.4
2019-06-10T00:48:20.003Z,19.5
2019-06-10T00:48:32.596Z,19.4
2019-06-10T00:49:17.810Z,19.5
2019-06-10T00:49:53.780Z,19.5
2019-06-10T00:50:31.182Z,19.5
2019-06-10T00:51:07.300Z,19.6
2019-06-10T00:51:41.828Z,19.5
2019-06-10T00:52:31.206Z,19.4
2019-06-10T00:53:17.829Z,19.5
2019-06-10T00:53:53.778Z,19.5
2019-06-10T00:54:31.539Z,19.4
2019-06-10T00:55:07.769Z,19.3
2019-06-10T00:55:42.252Z,19.3
2019-06-10T00:56:17.775Z,19.5
2019-06-10T00:56:53.861Z,19.4
2019-06-10T00:57:31.817Z,19.5
2019-06-10T00:58:06.093Z,19.4
2019-06-10T00:58:41.792Z,19.4
2019-06-10T00:59:17.852Z,19.4
2019-06-10T00:59:53.865Z,19.5
2019-06-10T01:00:32.031Z,19.4
2019-06-10T01:01:06.344Z,19.5
2019-06-10T01:01:42.140Z,19.4
2019-06-10T01:02:17.814Z,19.5
2019-06-10T01:02:53.808Z,19.3
2019-06-10T01:03:31.718Z,19.4
2019-06-10T01:04:08.662Z,19.4
2019-06-10T01:04:41.828Z,19.3
2019-06-10T01:05:17.804Z,19.3
2019-06-10T01:05:53.758Z,19.3
2019-06-10T01:06:32.180Z,19.3
2019-06-10T01:07:17.846Z,19.3
2019-06-10T01:07:53.849Z,19.3
2019-06-10T01:08:31.893Z,19.3
2019-06-10T01:09:06.950Z,19.5
2019-06-10T01:09:41.868Z,19.3
2019-06-10T01:10:17.813Z,19.2
2019-06-10T01:10:53.780Z,19.2
2019-06-10T01:11:31.458Z,19.2
2019-06-10T01:12:07.128Z,19.2
2019-06-10T01:12:53.879Z,19.2
2019-06-10T01:13:31.289Z,19.2
2019-06-10T01:14:05.776Z,19.3
2019-06-10T01:14:41.758Z,19.2
2019-06-10T01:15:17.834Z,19.2
2019-06-10T01:15:53.806Z,19.2
2019-06-10T01:16:32.089Z,19.1
2019-06-10T01:17:05.816Z,19.2
2019-06-10T01:17:42.067Z,19.2
2019-06-10T01:18:38.536Z,19.2
2019-06-10T01:19:06.047Z,19.2
2019-06-10T01:19:41.880Z,19
2019-06-10T01:20:17.750Z,19
2019-06-10T01:20:53.831Z,19.1
2019-06-10T01:21:31.649Z,19
2019-06-10T01:22:06.318Z,19.1
2019-06-10T01:22:41.739Z,19.1
2019-06-10T01:23:17.951Z,19.1
2019-06-10T01:23:53.803Z,19
2019-06-10T01:24:31.771Z,19.1
2019-06-10T01:25:05.736Z,19.1
2019-06-10T01:25:42.865Z,19.2
2019-06-10T01:26:20.891Z,19.1
2019-06-10T01:26:53.770Z,19.1
2019-06-10T01:27:31.856Z,19
2019-06-10T01:28:05.974Z,19
2019-06-10T01:28:41.807Z,19
2019-06-10T01:29:20.449Z,19
2019-06-10T01:29:53.858Z,19
2019-06-10T01:30:31.537Z,18.9
2019-06-10T01:31:12.964Z,19
2019-06-10T01:31:42.326Z,19
2019-06-10T01:32:18.014Z,18.9
2019-06-10T01:32:53.812Z,18.9
2019-06-10T01:33:32.081Z,18.9
2019-06-10T01:34:05.783Z,19
2019-06-10T01:34:42.026Z,18.8
2019-06-10T01:35:17.826Z,18.8
2019-06-10T01:35:53.803Z,18.8
2019-06-10T01:36:31.698Z,18.9
2019-06-10T01:37:07.020Z,18.8
2019-06-10T01:37:41.826Z,18.8
2019-06-10T01:38:21.067Z,18.8
2019-06-10T01:38:53.745Z,18.9
2019-06-10T01:39:31.245Z,18.7
2019-06-10T01:40:06.316Z,18.9
2019-06-10T01:40:42.622Z,18.7
2019-06-10T01:41:17.743Z,18.7
2019-06-10T01:41:53.841Z,18.8
2019-06-10T01:42:31.002Z,18.8
2019-06-10T01:43:06.603Z,18.8
2019-06-10T01:43:41.748Z,18.8
2019-06-10T01:44:18.035Z,18.7
2019-06-10T01:44:53.835Z,18.7
2019-06-10T01:45:31.591Z,18.7
2019-06-10T01:46:06.890Z,18.8
2019-06-10T01:46:41.828Z,18.7
2019-06-10T01:47:18.001Z,18.6
2019-06-10T01:47:53.769Z,18.7
2019-06-10T01:48:47.767Z,18.7
2019-06-10T01:49:07.191Z,18.6
2019-06-10T01:49:41.805Z,18.6
2019-06-10T01:50:21.725Z,18.5
2019-06-10T01:50:53.737Z,18.6
2019-06-10T01:51:32.007Z,18.5
2019-06-10T01:52:07.183Z,18.6
2019-06-10T01:52:53.799Z,18.5
2019-06-10T01:53:31.823Z,18.6
2019-06-10T01:54:05.729Z,18.5
2019-06-10T01:54:42.379Z,18.5
2019-06-10T01:55:18.610Z,18.5
2019-06-10T01:55:53.777Z,18.6
2019-06-10T01:56:31.844Z,18.4
2019-06-10T01:57:05.824Z,18.4
2019-06-10T01:57:41.793Z,18.5
2019-06-10T01:58:23.548Z,18.5
2019-06-10T01:58:53.730Z,18.4
2019-06-10T01:59:31.504Z,18.5
2019-06-10T02:00:17.823Z,18.4
2019-06-10T02:00:42.186Z,18.4
2019-06-10T02:01:23.246Z,18.4
2019-06-10T02:01:53.815Z,18.4
2019-06-10T02:02:35.416Z,18.3
2019-06-10T02:03:05.768Z,18.4
2019-06-10T02:03:41.887Z,18.4
2019-06-10T02:04:21.968Z,18.4
2019-06-10T02:04:53.790Z,18.4
2019-06-10T02:05:31.479Z,18.4
2019-06-10T02:06:05.721Z,18.4
2019-06-10T02:06:41.823Z,18.3
2019-06-10T02:07:22.679Z,18.3
2019-06-10T02:08:21.953Z,18.2
2019-06-10T02:08:53.777Z,18.3
2019-06-10T02:09:31.343Z,18.2
2019-06-10T02:10:22.438Z,18.1
2019-06-10T02:10:53.760Z,18.1
2019-06-10T02:11:32.033Z,18.2
2019-06-10T02:12:05.777Z,18.2
2019-06-10T02:12:41.914Z,18.1
2019-06-10T02:13:17.901Z,18.1
2019-06-10T02:13:53.808Z,18.1
2019-06-10T02:14:32.153Z,18
2019-06-10T02:15:05.739Z,17.9
2019-06-10T02:15:41.713Z,17.9
2019-06-10T02:16:20.991Z,17.8
2019-06-10T02:16:53.773Z,17.8
2019-06-10T02:17:31.821Z,17.9
2019-06-10T02:18:05.709Z,17.7
2019-06-10T02:19:00.369Z,17.8
2019-06-10T02:19:19.976Z,17.7
2019-06-10T02:19:53.746Z,17.8
2019-06-10T02:20:32.017Z,17.6
2019-06-10T02:21:05.797Z,17.7
2019-06-10T02:21:42.103Z,17.7
2019-06-10T02:22:20.094Z,17.6
2019-06-10T02:22:53.701Z,17.7
2019-06-10T02:23:31.883Z,17.6
2019-06-10T02:24:05.752Z,17.6
2019-06-10T02:24:42.014Z,17.6
2019-06-10T02:25:18.720Z,17.5
2019-06-10T02:25:53.780Z,17.6
2019-06-10T02:26:31.193Z,17.7
2019-06-10T02:27:05.749Z,17.6
2019-06-10T02:27:41.909Z,17.6
2019-06-10T02:28:19.058Z,17.6
2019-06-10T02:28:53.752Z,17.7
2019-06-10T02:29:31.119Z,17.7
2019-06-10T02:30:28.023Z,17.8
2019-06-10T02:30:55.342Z,17.7
2019-06-10T02:31:29.895Z,17.7
2019-06-10T02:32:37.847Z,17.8
2019-06-10T02:33:05.789Z,17.8
2019-06-10T02:33:42.383Z,17.8
2019-06-10T02:34:26.501Z,17.8
2019-06-10T02:35:08.465Z,17.8
2019-06-10T02:35:47.788Z,17.8
2019-06-10T02:36:45.020Z,17.8
2019-06-10T02:37:30.195Z,18
2019-06-10T02:37:54.417Z,18
2019-06-10T02:38:39.477Z,18
2019-06-10T02:39:05.748Z,18
2019-06-10T02:39:44.575Z,18
2019-06-10T02:40:31.056Z,17.9
2019-06-10T02:40:54.291Z,18
2019-06-10T02:41:36.025Z,18
2019-06-10T02:42:05.867Z,17.9
2019-06-10T02:42:44.136Z,18.1
2019-06-10T02:43:29.313Z,18
2019-06-10T02:43:53.854Z,18
2019-06-10T02:44:37.461Z,18.1
2019-06-10T02:45:05.792Z,18.1
2019-06-10T02:45:45.036Z,18
2019-06-10T02:46:30.197Z,18
2019-06-10T02:46:55.004Z,18
2019-06-10T02:47:38.141Z,17.9
2019-06-10T02:48:05.797Z,17.9
2019-06-10T02:48:44.021Z,17.9
2019-06-10T02:49:47.854Z,17.8
2019-06-10T02:50:07.872Z,17.7
2019-06-10T02:50:36.581Z,17.7
2019-06-10T02:51:05.880Z,17.5
2019-06-10T02:51:44.339Z,17.6
2019-06-10T02:52:24.190Z,17.4
2019-06-10T02:52:53.728Z,17.4
2019-06-10T02:53:35.846Z,17.3
2019-06-10T02:54:05.775Z,17.3
2019-06-10T02:54:44.131Z,17.1
2019-06-10T02:55:22.745Z,17.1
2019-06-10T02:55:54.400Z,17
2019-06-10T02:56:36.658Z,16.9
2019-06-10T02:57:05.763Z,16.8
2019-06-10T02:57:45.271Z,16.7
2019-06-10T02:58:22.958Z,16.7
2019-06-10T02:58:53.948Z,16.5
2019-06-10T02:59:36.101Z,16.5
2019-06-10T03:00:23.328Z,16.4
2019-06-10T03:00:49.343Z,16.4
2019-06-10T03:01:23.047Z,16.4
2019-06-10T03:02:36.523Z,16.1
2019-06-10T03:03:05.686Z,16.1
2019-06-10T03:03:49.772Z,16.1
2019-06-10T03:04:21.965Z,16.1
2019-06-10T03:05:41.095Z,15.9
2019-06-10T03:06:09.021Z,16.1
2019-06-10T03:06:45.200Z,16
2019-06-10T03:07:19.718Z,16
2019-06-10T03:07:53.738Z,16
2019-06-10T03:08:35.882Z,15.9
2019-06-10T03:09:05.785Z,15.9
2019-06-10T03:09:43.072Z,15.8
2019-06-10T03:10:26.872Z,15.9
2019-06-10T03:10:55.136Z,15.9
2019-06-10T03:11:37.021Z,15.8
2019-06-10T03:12:05.710Z,15.9
2019-06-10T03:12:42.713Z,15.8
2019-06-10T03:13:17.931Z,15.8
2019-06-10T03:13:53.722Z,15.8
2019-06-10T03:14:29.745Z,15.7
2019-06-10T03:15:05.664Z,15.8
2019-06-10T03:15:42.991Z,15.8
2019-06-10T03:16:18.105Z,15.7
2019-06-10T03:16:53.702Z,15.7
2019-06-10T03:17:31.779Z,15.7
2019-06-10T03:18:05.752Z,15.6
2019-06-10T03:18:43.791Z,15.7
2019-06-10T03:19:43.855Z,15.7
2019-06-10T03:19:53.951Z,15.7
2019-06-10T03:20:31.998Z,15.7
2019-06-10T03:21:05.735Z,15.6
2019-06-10T03:21:43.205Z,15.6
2019-06-10T03:22:18.280Z,15.6
2019-06-10T03:22:53.745Z,15.7
2019-06-10T03:23:32.321Z,15.6
2019-06-10T03:24:05.696Z,15.7
2019-06-10T03:24:42.463Z,15.7
2019-06-10T03:25:18.625Z,15.8
2019-06-10T03:25:53.710Z,15.7
2019-06-10T03:26:32.121Z,15.7
2019-06-10T03:27:05.781Z,15.8
2019-06-10T03:27:42.758Z,15.7
2019-06-10T03:28:17.757Z,15.7
2019-06-10T03:29:29.785Z,15.7
2019-06-10T03:31:06.657Z,15.7
2019-06-10T03:32:06.110Z,15.8
2019-06-10T03:32:47.604Z,15.8
2019-06-10T03:33:54.923Z,15.9
2019-06-10T03:34:41.848Z,15.9
2019-06-10T03:35:06.193Z,15.9
2019-06-10T03:35:53.810Z,15.9
2019-06-10T03:36:43.275Z,15.9
2019-06-10T03:37:18.601Z,16
2019-06-10T03:37:53.715Z,16
2019-06-10T03:38:43.546Z,16
2019-06-10T03:39:32.107Z,16.1
2019-06-10T03:40:05.664Z,16.1
2019-06-10T03:40:43.725Z,16.1
2019-06-10T03:41:32.139Z,16.2
2019-06-10T03:42:07.232Z,16.2
2019-06-10T03:42:43.085Z,16.2
2019-06-10T03:43:18.964Z,16.3
2019-06-10T03:43:53.777Z,16.2
2019-06-10T03:44:29.731Z,16.3
2019-06-10T03:45:08.636Z,16.4
2019-06-10T03:45:53.689Z,16.4
2019-06-10T03:46:29.716Z,16.4
2019-06-10T03:47:05.754Z,16.3
2019-06-10T03:47:43.082Z,16.4
2019-06-10T03:48:17.692Z,16.4
2019-06-10T03:48:53.648Z,16.5
2019-06-10T03:49:32.398Z,16.4
2019-06-10T03:50:05.726Z,16.5
2019-06-10T03:50:53.713Z,16.5
2019-06-10T03:51:29.724Z,16.6
2019-06-10T03:52:05.709Z,16.5
2019-06-10T03:52:43.487Z,16.5
2019-06-10T03:53:29.732Z,16.7
2019-06-10T03:54:17.741Z,16.6
2019-06-10T03:54:53.716Z,16.6
2019-06-10T03:55:29.681Z,16.7
2019-06-10T03:56:05.639Z,16.7
2019-06-10T03:56:43.393Z,16.7
2019-06-10T03:57:17.773Z,16.7
2019-06-10T03:57:53.670Z,16.7
2019-06-10T03:58:29.692Z,16.8
2019-06-10T03:59:05.737Z,16.7
2019-06-10T03:59:42.516Z,16.7
2019-06-10T04:00:19.383Z,16.8
2019-06-10T04:00:53.650Z,16.7
2019-06-10T04:01:30.412Z,16.8
2019-06-10T04:02:05.699Z,16.7
2019-06-10T04:02:43.420Z,16.8
2019-06-10T04:03:17.649Z,16.7
2019-06-10T04:03:53.788Z,16.9
2019-06-10T04:04:29.718Z,16.9
2019-06-10T04:05:05.670Z,16.9
2019-06-10T04:05:53.690Z,16.8
2019-06-10T04:06:33.330Z,16.9
2019-06-10T04:07:05.762Z,16.9
2019-06-10T04:07:43.137Z,17
2019-06-10T04:08:17.749Z,16.9
2019-06-10T04:08:53.635Z,17
2019-06-10T04:09:29.769Z,16.9
2019-06-10T04:10:05.695Z,16.9
2019-06-10T04:10:43.309Z,17
2019-06-10T04:11:35.392Z,16.9
2019-06-10T04:12:17.760Z,17.1
2019-06-10T04:13:05.719Z,17
2019-06-10T04:13:53.855Z,17.1
2019-06-10T04:14:29.627Z,17
2019-06-10T04:15:05.719Z,17.1
2019-06-10T04:15:43.514Z,17.1
2019-06-10T04:16:17.927Z,17.2
2019-06-10T04:16:53.620Z,17.1
2019-06-10T04:17:29.714Z,17.1
2019-06-10T04:18:18.224Z,17.2
2019-06-10T04:18:53.832Z,17.1
2019-06-10T04:19:29.664Z,17.1
2019-06-10T04:20:18.097Z,17.1
2019-06-10T04:20:53.740Z,17.2
2019-06-10T04:21:29.710Z,17.2
2019-06-10T04:22:05.680Z,17.2
2019-06-10T04:22:41.649Z,17.2
2019-06-10T04:23:18.022Z,17.3
2019-06-10T04:23:53.707Z,17.3
2019-06-10T04:24:29.687Z,17.3
2019-06-10T04:25:05.727Z,17.3
2019-06-10T04:25:43.085Z,17.3
2019-06-10T04:26:18.087Z,17.4
2019-06-10T04:26:53.668Z,17.3
2019-06-10T04:27:29.644Z,17.4
2019-06-10T04:28:05.734Z,17.3
2019-06-10T04:28:43.368Z,17.3
2019-06-10T04:29:18.194Z,17.4
2019-06-10T04:29:53.635Z,17.4
2019-06-10T04:30:32.010Z,17.4
2019-06-10T04:31:18.464Z,17.5
2019-06-10T04:31:53.720Z,17.5
2019-06-10T04:32:29.658Z,17.5
2019-06-10T04:33:05.631Z,17.6
2019-06-10T04:33:42.548Z,17.5
2019-06-10T04:34:33.278Z,17.6
2019-06-10T04:35:05.690Z,17.6
2019-06-10T04:35:53.691Z,17.7
2019-06-10T04:36:29.753Z,17.7
2019-06-10T04:37:05.622Z,17.6
2019-06-10T04:37:53.623Z,17.6
2019-06-10T04:38:29.712Z,17.7
2019-06-10T04:39:05.736Z,17.7
2019-06-10T04:39:43.088Z,17.7
2019-06-10T04:40:18.754Z,17.7
2019-06-10T04:40:53.724Z,17.8
2019-06-10T04:41:29.679Z,17.8
2019-06-10T04:42:05.660Z,17.7
2019-06-10T04:42:43.814Z,17.7
2019-06-10T04:43:18.730Z,17.7
2019-06-10T04:43:53.680Z,17.7
2019-06-10T04:44:29.748Z,17.7
2019-06-10T04:45:05.624Z,17.7
2019-06-10T04:45:43.291Z,17.8
2019-06-10T04:46:18.865Z,17.7
2019-06-10T04:46:53.680Z,17.7
2019-06-10T04:47:29.970Z,17.8
2019-06-10T04:48:05.713Z,17.8
2019-06-10T04:48:43.061Z,17.7
2019-06-10T04:49:18.947Z,17.7
2019-06-10T04:50:43.619Z,17.9
2019-06-10T04:51:05.680Z,17.9
2019-06-10T04:51:43.896Z,17.6
2019-06-10T04:52:18.881Z,17.6
2019-06-10T04:52:53.696Z,17.5
2019-06-10T04:53:29.761Z,17.4
2019-06-10T04:54:05.648Z,17.3
2019-06-10T04:54:53.638Z,17
2019-06-10T04:55:29.660Z,16.9
2019-06-10T04:56:05.706Z,16.9
2019-06-10T04:56:43.213Z,16.8
2019-06-10T04:57:18.739Z,16.9
2019-06-10T04:57:53.629Z,16.8
2019-06-10T04:58:33.259Z,16.8
2019-06-10T04:59:05.667Z,16.8
2019-06-10T04:59:53.710Z,16.7
2019-06-10T05:00:33.015Z,16.9
2019-06-10T05:01:05.603Z,16.9
2019-06-10T05:01:53.623Z,16.8
2019-06-10T05:02:33.227Z,16.8
2019-06-10T05:03:05.682Z,16.7
2019-06-10T05:03:43.728Z,16.7
2019-06-10T05:04:18.887Z,16.7
2019-06-10T05:04:53.686Z,16.7
2019-06-10T05:05:32.864Z,16.7
2019-06-10T05:06:05.637Z,16.8
2019-06-10T05:06:42.586Z,16.8
2019-06-10T05:07:18.914Z,16.7
2019-06-10T05:08:05.683Z,16.8
2019-06-10T05:08:42.984Z,16.7
2019-06-10T05:09:18.757Z,16.8
2019-06-10T05:09:53.594Z,16.7
2019-06-10T05:10:30.258Z,16.8
2019-06-10T05:11:05.700Z,16.7
2019-06-10T05:11:43.496Z,16.8
2019-06-10T05:12:17.582Z,16.8
2019-06-10T05:12:53.677Z,17
2019-06-10T05:13:30.309Z,17
2019-06-10T05:14:05.646Z,16.9
2019-06-10T05:14:43.606Z,16.9
2019-06-10T05:15:17.728Z,17
2019-06-10T05:15:53.649Z,17
2019-06-10T05:16:35.646Z,17
2019-06-10T05:17:05.702Z,17
2019-06-10T05:17:44.116Z,17
2019-06-10T05:18:17.642Z,17.1
2019-06-10T05:18:55.275Z,17
2019-06-10T05:19:33.075Z,17.1
2019-06-10T05:20:05.684Z,17.1
2019-06-10T05:20:58.355Z,17.1
2019-06-10T05:21:17.626Z,17
2019-06-10T05:21:53.748Z,17.1
2019-06-10T05:22:32.869Z,17
2019-06-10T05:23:05.643Z,17.1
2019-06-10T05:23:43.406Z,17.1
2019-06-10T05:24:17.692Z,17.2
2019-06-10T05:25:05.692Z,17.1
2019-06-10T05:25:43.093Z,17.2
2019-06-10T05:26:17.631Z,17.1
2019-06-10T05:26:53.641Z,17.2
2019-06-10T05:27:33.119Z,17.2
2019-06-10T05:28:05.684Z,17.1
2019-06-10T05:28:43.650Z,17.2
2019-06-10T05:29:17.600Z,17.3
2019-06-10T05:29:53.688Z,17.3
2019-06-10T05:30:33.468Z,17.3
2019-06-10T05:31:05.621Z,17.3
2019-06-10T05:31:44.005Z,17.3
2019-06-10T05:32:17.727Z,17.2
2019-06-10T05:32:53.645Z,17.3
2019-06-10T05:33:32.819Z,17.3
2019-06-10T05:34:05.604Z,17.3
2019-06-10T05:34:44.035Z,17.4
2019-06-10T05:35:17.650Z,17.3
2019-06-10T05:35:53.625Z,17.4
2019-06-10T05:36:34.580Z,17.3
2019-06-10T05:37:05.690Z,17.4
2019-06-10T05:37:42.661Z,17.4
2019-06-10T05:38:17.619Z,17.4
2019-06-10T05:38:53.593Z,17.5
2019-06-10T05:39:32.455Z,17.4
2019-06-10T05:40:05.645Z,17.5
2019-06-10T05:40:43.098Z,17.4
2019-06-10T05:41:17.573Z,17.5
2019-06-10T05:41:53.678Z,17.6
2019-06-10T05:42:35.556Z,17.5
2019-06-10T05:43:05.671Z,17.6
2019-06-10T05:43:43.396Z,17.6
2019-06-10T05:44:17.664Z,17.7
2019-06-10T05:44:53.656Z,17.7
2019-06-10T05:45:31.853Z,17.7
2019-06-10T05:46:05.577Z,17.7
2019-06-10T05:46:43.885Z,17.8
2019-06-10T05:47:17.659Z,17.8
2019-06-10T05:47:53.604Z,17.8
2019-06-10T05:48:33.037Z,17.7
2019-06-10T05:49:05.669Z,17.8
2019-06-10T05:49:43.419Z,17.8
2019-06-10T05:50:17.602Z,17.8
2019-06-10T05:51:06.468Z,17.8
2019-06-10T05:51:33.365Z,17.9
2019-06-10T05:52:05.638Z,17.9
2019-06-10T05:52:43.072Z,18
2019-06-10T05:53:17.581Z,17.9
2019-06-10T05:53:53.702Z,18
2019-06-10T05:54:29.625Z,18
2019-06-10T05:55:05.630Z,18
2019-06-10T05:55:43.073Z,18.1
2019-06-10T05:56:17.652Z,18.1
2019-06-10T05:56:53.633Z,18.1
2019-06-10T05:57:32.395Z,18.1
2019-06-10T05:58:05.578Z,18.1
2019-06-10T05:58:44.038Z,18.1
2019-06-10T05:59:17.650Z,18.2
2019-06-10T05:59:53.604Z,18.3
2019-06-10T06:00:32.388Z,18.3
2019-06-10T06:01:05.652Z,18.2
2019-06-10T06:01:43.640Z,18.3
2019-06-10T06:02:17.578Z,18.3
2019-06-10T06:02:53.555Z,18.4
2019-06-10T06:03:30.216Z,18.4
2019-06-10T06:04:05.621Z,18.4
2019-06-10T06:04:43.179Z,18.5
2019-06-10T06:05:17.557Z,18.4
2019-06-10T06:05:53.632Z,18.4
2019-06-10T06:06:31.711Z,18.4
2019-06-10T06:07:05.581Z,18.5
2019-06-10T06:07:42.731Z,18.5
2019-06-10T06:08:17.644Z,18.5
2019-06-10T06:08:53.854Z,18.5
2019-06-10T06:09:31.680Z,18.5
2019-06-10T06:10:05.613Z,18.6
2019-06-10T06:10:42.773Z,18.5
2019-06-10T06:11:17.601Z,18.6
2019-06-10T06:11:53.577Z,18.6
2019-06-10T06:12:29.589Z,18.6
2019-06-10T06:13:05.649Z,18.7
2019-06-10T06:13:43.598Z,18.7
2019-06-10T06:14:17.572Z,18.7
2019-06-10T06:14:53.545Z,18.7
2019-06-10T06:15:29.934Z,18.8
2019-06-10T06:16:05.625Z,18.9
2019-06-10T06:16:43.686Z,18.9
2019-06-10T06:17:17.679Z,19
2019-06-10T06:18:10.388Z,19
2019-06-10T06:18:30.265Z,19
2019-06-10T06:19:05.562Z,19
2019-06-10T06:19:43.731Z,19
2019-06-10T06:20:17.632Z,19.1
2019-06-10T06:20:53.644Z,19.1
2019-06-10T06:21:41.789Z,19.1
2019-06-10T06:22:05.661Z,19.1
2019-06-10T06:22:43.213Z,19.2
2019-06-10T06:23:17.585Z,19.2
2019-06-10T06:23:53.559Z,19.3
2019-06-10T06:24:29.883Z,19.2
2019-06-10T06:25:05.635Z,19.2
2019-06-10T06:25:46.859Z,19.2
2019-06-10T06:26:17.623Z,19.3
2019-06-10T06:26:53.797Z,19.2
2019-06-10T06:27:30.756Z,19.3
2019-06-10T06:28:05.585Z,19.2
2019-06-10T06:28:43.411Z,19.5
2019-06-10T06:29:17.646Z,19.4
2019-06-10T06:29:53.622Z,19.3
2019-06-10T06:30:30.514Z,19.3
2019-06-10T06:31:05.545Z,19.4
2019-06-10T06:31:53.603Z,19.4
2019-06-10T06:32:33.596Z,19.3
2019-06-10T06:33:05.620Z,19.4
2019-06-10T06:33:43.707Z,19.3
2019-06-10T06:34:17.553Z,19.2
2019-06-10T06:34:53.645Z,19.3
2019-06-10T06:35:35.512Z,19.3
2019-06-10T06:36:05.577Z,19.3
2019-06-10T06:36:42.634Z,19.3
2019-06-10T06:37:17.704Z,19.3
2019-06-10T06:37:54.407Z,19.3
2019-06-10T06:38:31.272Z,19.3
2019-06-10T06:39:05.558Z,19.3
2019-06-10T06:39:43.277Z,19.3
2019-06-10T06:40:54.092Z,19.3
2019-06-10T06:41:29.786Z,19.3
2019-06-10T06:42:05.645Z,19.4
2019-06-10T06:42:43.693Z,19.2
2019-06-10T06:43:17.569Z,19.2
2019-06-10T06:43:53.593Z,19.3
2019-06-10T06:44:32.436Z,19.3
2019-06-10T06:45:05.602Z,19.3
2019-06-10T06:45:43.040Z,19.3
2019-06-10T06:46:17.545Z,19.2
2019-06-10T06:46:53.666Z,19.3
2019-06-10T06:47:32.743Z,19.4
2019-06-10T06:48:05.610Z,19.4
2019-06-10T06:48:44.137Z,19.4
2019-06-10T06:49:17.627Z,19.3
2019-06-10T06:49:53.596Z,19.3
2019-06-10T06:50:34.278Z,19.3
2019-06-10T06:51:08.940Z,19.3
2019-06-10T06:51:55.960Z,19.4
2019-06-10T06:52:17.587Z,19.4
2019-06-10T06:53:19.275Z,19.4
2019-06-10T06:53:48.048Z,19.4
2019-06-10T06:54:42.817Z,19.4
2019-06-10T06:55:17.548Z,19.5
2019-06-10T06:55:56.101Z,19.5
2019-06-10T06:56:44.034Z,19.4
2019-06-10T06:57:17.623Z,19.5
2019-06-10T06:57:53.578Z,19.6
2019-06-10T06:58:31.631Z,19.6
2019-06-10T06:59:05.531Z,19.6
2019-06-10T06:59:43.556Z,19.6
2019-06-10T07:01:00.048Z,19.7
2019-06-10T07:01:10.018Z,19.8
2019-06-10T07:02:05.624Z,19.8
2019-06-10T07:02:53.607Z,19.8
2019-06-10T07:03:30.016Z,19.8
2019-06-10T07:04:05.553Z,19.8
2019-06-10T07:04:43.654Z,19.8
2019-06-10T07:05:17.596Z,19.8
2019-06-10T07:05:53.569Z,19.7
2019-06-10T07:06:32.846Z,19.7
2019-06-10T07:07:05.536Z,19.7
2019-06-10T07:07:43.577Z,19.8
2019-06-10T07:08:17.571Z,19.8
2019-06-10T07:09:07.808Z,19.8
2019-06-10T07:09:43.601Z,19.8
2019-06-10T07:10:17.503Z,19.8
2019-06-10T07:10:53.597Z,19.8
2019-06-10T07:11:34.346Z,19.8
2019-06-10T07:12:05.545Z,19.8
2019-06-10T07:12:53.528Z,19.8
2019-06-10T07:13:30.766Z,19.9
2019-06-10T07:14:05.636Z,20
2019-06-10T07:14:45.223Z,20
2019-06-10T07:15:29.573Z,20.2
2019-06-10T07:16:05.589Z,20.3
2019-06-10T07:16:46.637Z,20.3
2019-06-10T07:17:17.604Z,20.5
2019-06-10T07:17:53.566Z,20.6
2019-06-10T07:18:29.532Z,20.6
2019-06-10T07:19:05.529Z,20.8
2019-06-10T07:19:46.010Z,21
2019-06-10T07:20:17.557Z,21
2019-06-10T07:20:54.438Z,21
2019-06-10T07:21:29.611Z,21.1
2019-06-10T07:22:15.934Z,21.1
2019-06-10T07:22:53.703Z,21.3
2019-06-10T07:23:29.551Z,21.3
2019-06-10T07:24:05.564Z,21.3
2019-06-10T07:24:47.843Z,21.3
2019-06-10T07:25:17.569Z,21.4
2019-06-10T07:25:53.570Z,21.4
2019-06-10T07:26:29.511Z,21.5
2019-06-10T07:27:17.527Z,21.5
2019-06-10T07:28:05.518Z,21.5
2019-06-10T07:28:47.396Z,21.5
2019-06-10T07:29:29.591Z,21.7
2019-06-10T07:30:15.055Z,21.8
2019-06-10T07:30:55.569Z,21.8
2019-06-10T07:31:32.155Z,22
2019-06-10T07:32:05.505Z,21.9
2019-06-10T07:32:47.484Z,21.9
2019-06-10T07:33:29.603Z,22
2019-06-10T07:34:05.579Z,22.1
2019-06-10T07:34:53.561Z,22.3
2019-06-10T07:35:29.582Z,22.2
2019-06-10T07:36:05.506Z,22.4
2019-06-10T07:36:45.431Z,22.5
2019-06-10T07:37:17.561Z,22.3
2019-06-10T07:37:53.536Z,22.5
2019-06-10T07:38:29.507Z,22.6
2019-06-10T07:39:05.601Z,22.7
2019-06-10T07:39:45.381Z,22.8
2019-06-10T07:40:29.601Z,22.9
2019-06-10T07:41:17.568Z,22.9
2019-06-10T07:41:53.524Z,22.9
2019-06-10T07:42:29.492Z,23
2019-06-10T07:43:17.486Z,23
2019-06-10T07:43:53.587Z,22.9
2019-06-10T07:44:29.554Z,23
2019-06-10T07:45:05.521Z,23
2019-06-10T07:45:47.900Z,23
2019-06-10T07:46:17.588Z,23.2
2019-06-10T07:46:53.576Z,23.2
2019-06-10T07:47:29.519Z,23.3
2019-06-10T07:48:05.502Z,23.2
2019-06-10T07:48:48.312Z,23.2
2019-06-10T07:49:17.553Z,23.2
2019-06-10T07:49:53.531Z,23.3
2019-06-10T07:50:29.496Z,23.3
2019-06-10T07:51:05.593Z,23.2
2019-06-10T07:51:46.402Z,23.2
2019-06-10T07:52:46.780Z,23.3
2019-06-10T07:53:17.551Z,23.3
2019-06-10T07:53:53.513Z,23.3
2019-06-10T07:54:29.482Z,23.2
2019-06-10T07:55:05.581Z,23.2
2019-06-10T07:55:46.508Z,23.2
2019-06-10T07:56:17.525Z,23.2
2019-06-10T07:56:54.152Z,23.3
2019-06-10T07:57:29.569Z,23.3
2019-06-10T07:58:05.542Z,23.3
2019-06-10T07:58:47.775Z,23.4
2019-06-10T07:59:17.481Z,23.4
2019-06-10T08:00:05.602Z,23.3
2019-06-10T08:00:48.572Z,23.3
2019-06-10T08:01:17.639Z,23.3
2019-06-10T08:01:55.751Z,23.3
2019-06-10T08:02:29.475Z,23.3
2019-06-10T08:03:05.553Z,23.3
2019-06-10T08:03:46.562Z,23.3
2019-06-10T08:04:17.499Z,23.2
2019-06-10T08:04:54.631Z,23.3
2019-06-10T08:05:31.823Z,23.4
2019-06-10T08:06:05.544Z,23.4
2019-06-10T08:06:45.781Z,23.5
2019-06-10T08:07:17.471Z,23.6
2019-06-10T08:07:55.843Z,23.6
2019-06-10T08:08:29.636Z,23.7
2019-06-10T08:09:05.545Z,23.9
2019-06-10T08:09:45.679Z,23.9
2019-06-10T08:10:17.737Z,24
2019-06-10T08:10:53.526Z,24.1
2019-06-10T08:11:29.485Z,24.2
2019-06-10T08:12:06.341Z,24.3
2019-06-10T08:12:46.577Z,24.4
2019-06-10T08:13:17.579Z,24.4
2019-06-10T08:13:54.405Z,24.5
2019-06-10T08:14:29.529Z,24.6
2019-06-10T08:15:05.606Z,24.7
2019-06-10T08:15:46.339Z,24.7
2019-06-10T08:16:17.509Z,24.7
2019-06-10T08:16:53.675Z,24.8
2019-06-10T08:17:32.324Z,24.9
2019-06-10T08:18:07.404Z,24.8
2019-06-10T08:19:29.240Z,24.9
2019-06-10T08:19:37.539Z,24.8
2019-06-10T08:20:32.646Z,24.8
2019-06-10T08:21:05.616Z,24.8
2019-06-10T08:21:47.406Z,24.8
2019-06-10T08:22:37.191Z,24.7